Time;durP1;ratioP1;P1;durP2;ratioP2;P2;SDS_P1;SDS_P2;PMS_P1;PMS_P2;Temp;Humidity;BMP_temperature;BMP_pressure;BME280_temperature;BME280_humidity;BME280_pressure;Samples;Min_cycle;Max_cycle;Signal;HPM_P1;HPM_P2
2024/02/08 00:00:10;;;;;;;13.95;10.18;;;;;;;4.46;100.00;100292.84;5235945;28;20040;-76
2024/02/08 00:02:42;;;;;;;12.60;9.07;;;;;;;4.55;100.00;100305.19;5241412;28;20041;-76
2024/02/08 00:05:14;;;;;;;14.20;9.37;;;;;;;4.57;100.00;100313.69;5241951;28;20039;-76
2024/02/08 00:07:46;;;;;;;13.63;9.73;;;;;;;4.64;100.00;100333.09;5241474;28;20036;-76
2024/02/08 00:10:18;;;;;;;12.50;8.90;;;;;;;4.68;100.00;100338.91;5242521;28;20032;-76
2024/02/08 00:12:50;;;;;;;14.90;8.32;;;;;;;4.70;100.00;100340.47;5241927;28;20086;-76
2024/02/08 00:15:22;;;;;;;12.13;8.32;;;;;;;4.76;100.00;100334.00;5236752;28;20041;-75
2024/02/08 00:17:55;;;;;;;12.73;8.80;;;;;;;4.73;100.00;100324.66;5241201;28;20055;-76
2024/02/08 00:20:27;;;;;;;15.95;9.25;;;;;;;4.72;100.00;100325.63;5245232;28;20027;-75
2024/02/08 00:22:59;;;;;;;15.60;9.15;;;;;;;4.71;100.00;100336.94;5242404;28;20366;-76
2024/02/08 00:25:31;;;;;;;13.27;10.18;;;;;;;4.67;100.00;100330.28;5240607;28;20044;-74
2024/02/08 00:28:03;;;;;;;11.50;9.20;;;;;;;4.67;100.00;100326.88;5245550;28;20517;-75
2024/02/08 00:30:38;;;;;;;14.02;9.55;;;;;;;4.68;100.00;100323.34;5239273;28;20030;-74
2024/02/08 00:33:09;;;;;;;15.98;9.15;;;;;;;4.66;100.00;100330.38;5239044;28;20033;-75
2024/02/08 00:35:41;;;;;;;13.05;8.85;;;;;;;4.68;100.00;100334.53;5236272;28;20055;-76
2024/02/08 00:38:13;;;;;;;13.65;9.77;;;;;;;4.62;100.00;100328.03;5240948;28;20026;-73
2024/02/08 00:40:51;;;;;;;13.13;9.48;;;;;;;4.78;100.00;100337.34;5239112;28;20032;-76
2024/02/08 00:43:23;;;;;;;10.73;8.07;;;;;;;4.77;100.00;100331.34;5242737;28;20033;-75
2024/02/08 00:45:55;;;;;;;10.85;7.75;;;;;;;4.71;100.00;100323.13;5239708;28;20052;-76
2024/02/08 00:48:27;;;;;;;14.60;8.73;;;;;;;4.76;100.00;100331.41;5242325;28;20179;-76
2024/02/08 00:50:59;;;;;;;10.77;7.28;;;;;;;4.82;100.00;100338.78;5242190;28;20025;-76
2024/02/08 00:53:31;;;;;;;12.00;8.50;;;;;;;4.76;100.00;100334.00;5250512;28;20049;-76
2024/02/08 00:56:03;;;;;;;12.73;8.63;;;;;;;4.80;100.00;100331.09;5240731;28;20033;-76
2024/02/08 00:58:35;;;;;;;13.23;7.88;;;;;;;4.75;100.00;100315.03;5242930;28;20037;-76
2024/02/08 01:01:07;;;;;;;11.90;8.85;;;;;;;4.73;100.00;100321.25;5243499;28;20450;-75
2024/02/08 01:03:39;;;;;;;13.70;8.75;;;;;;;4.78;100.00;100325.19;5238793;28;20041;-76
2024/02/08 01:06:12;;;;;;;11.68;7.88;;;;;;;4.74;100.00;100320.34;5236880;28;20036;-76
2024/02/08 01:08:44;;;;;;;13.98;8.48;;;;;;;4.77;100.00;100318.34;5238501;28;20533;-76
2024/02/08 01:11:15;;;;;;;11.70;8.32;;;;;;;4.78;100.00;100332.16;5244305;28;20033;-75
2024/02/08 01:13:47;;;;;;;12.55;8.65;;;;;;;4.75;100.00;100327.19;5238711;28;20037;-74
2024/02/08 01:16:19;;;;;;;12.60;8.55;;;;;;;4.86;100.00;100322.91;5240797;28;20033;-76
2024/02/08 01:18:52;;;;;;;11.15;8.70;;;;;;;4.81;100.00;100312.03;5237533;28;20475;-74
2024/02/08 01:21:26;;;;;;;14.02;9.20;;;;;;;4.86;100.00;100320.31;5239994;28;20020;-76
2024/02/08 01:23:58;;;;;;;13.13;9.00;;;;;;;4.84;100.00;100322.16;5241412;28;20649;-74
2024/02/08 01:26:31;;;;;;;15.93;9.80;;;;;;;4.88;100.00;100321.00;5238869;28;20040;-76
2024/02/08 01:29:06;;;;;;;16.88;9.90;;;;;;;4.97;100.00;100316.97;5235093;28;20773;-75
2024/02/08 01:31:38;;;;;;;16.42;10.48;;;;;;;4.92;100.00;100323.41;5237511;28;20554;-76
2024/02/08 01:34:10;;;;;;;15.52;9.85;;;;;;;4.91;100.00;100319.97;5239642;28;20071;-76
2024/02/08 01:36:42;;;;;;;12.90;10.38;;;;;;;4.95;100.00;100307.63;5241153;28;20032;-76
2024/02/08 01:39:22;;;;;;;16.92;10.10;;;;;;;5.01;100.00;100310.63;5239019;28;20036;-76
2024/02/08 01:41:54;;;;;;;14.40;9.88;;;;;;;5.08;100.00;100305.84;5238144;28;20040;-74
2024/02/08 01:44:26;;;;;;;15.70;10.50;;;;;;;5.08;100.00;100301.47;5239226;28;20045;-76
2024/02/08 01:46:58;;;;;;;14.80;10.57;;;;;;;5.02;100.00;100295.88;5240813;28;20033;-74
2024/02/08 01:49:31;;;;;;;18.30;11.85;;;;;;;4.97;100.00;100306.59;5236642;28;20036;-76
2024/02/08 01:52:04;;;;;;;18.98;11.55;;;;;;;5.00;100.00;100302.91;5235747;28;20037;-76
2024/02/08 01:54:43;;;;;;;24.17;12.05;;;;;;;5.07;100.00;100292.00;5236622;28;20033;-76
2024/02/08 01:57:15;;;;;;;19.02;12.05;;;;;;;5.02;100.00;100293.28;5238970;28;20045;-75
2024/02/08 01:59:52;;;;;;;17.98;12.15;;;;;;;5.13;100.00;100306.34;5238632;28;20037;-76
2024/02/08 02:02:27;;;;;;;17.88;11.60;;;;;;;5.13;100.00;100298.53;5241220;28;20048;-74
2024/02/08 02:04:59;;;;;;;14.88;11.55;;;;;;;5.20;100.00;100299.78;5237694;28;20513;-73
2024/02/08 02:07:30;;;;;;;18.48;11.82;;;;;;;5.12;100.00;100294.28;5238042;28;20033;-75
2024/02/08 02:10:03;;;;;;;14.73;9.65;;;;;;;5.07;100.00;100296.38;5239157;28;20037;-76
2024/02/08 02:12:35;;;;;;;15.68;9.90;;;;;;;5.04;100.00;100292.25;5241013;28;20041;-75
2024/02/08 02:15:07;;;;;;;12.70;9.07;;;;;;;5.09;100.00;100291.91;5240058;28;20040;-75
2024/02/08 02:17:44;;;;;;;13.73;9.48;;;;;;;5.12;100.00;100295.13;5236782;28;20421;-74
2024/02/08 02:20:24;;;;;;;13.50;8.80;;;;;;;5.00;100.00;100279.56;5235682;28;20036;-75
2024/02/08 02:23:00;;;;;;;11.73;9.13;;;;;;;5.20;100.00;100289.38;5242472;28;21440;-76
2024/02/08 02:25:32;;;;;;;11.00;8.55;;;;;;;5.00;100.00;100277.81;5237642;28;20025;-75
2024/02/08 02:28:06;;;;;;;14.27;9.38;;;;;;;5.07;100.00;100284.22;5235423;28;20036;-74
2024/02/08 02:30:38;;;;;;;14.05;8.93;;;;;;;5.08;100.00;100277.28;5240458;28;20390;-76
2024/02/08 02:33:14;;;;;;;14.82;9.57;;;;;;;5.20;100.00;100271.19;5233972;28;20040;-76
2024/02/08 02:35:49;;;;;;;13.77;9.27;;;;;;;5.04;100.00;100255.91;5240132;28;20497;-74
2024/02/08 02:38:24;;;;;;;17.25;10.52;;;;;;;5.19;100.00;100256.56;5242778;28;20120;-76
2024/02/08 02:41:00;;;;;;;15.00;10.48;;;;;;;5.21;100.00;100256.44;5235043;28;20022;-74
2024/02/08 02:43:34;;;;;;;14.95;9.73;;;;;;;5.16;100.00;100258.56;5238553;28;20044;-75
2024/02/08 02:46:06;;;;;;;17.60;11.38;;;;;;;5.19;100.00;100258.31;5237494;28;20626;-76
2024/02/08 02:48:41;;;;;;;15.38;11.13;;;;;;;5.22;100.00;100237.31;5234845;28;20054;-74
2024/02/08 02:51:12;;;;;;;19.75;11.65;;;;;;;5.27;100.00;100232.66;5237472;28;20038;-73
2024/02/08 02:53:45;;;;;;;16.55;10.85;;;;;;;5.27;100.00;100230.88;5236471;28;21276;-76
2024/02/08 02:56:19;;;;;;;17.02;12.15;;;;;;;5.27;100.00;100230.03;5237486;28;20044;-74
2024/02/08 02:58:51;;;;;;;20.05;13.23;;;;;;;5.25;100.00;100224.13;5229765;28;20034;-76
2024/02/08 03:01:26;;;;;;;22.93;13.90;;;;;;;5.34;100.00;100231.22;5234290;28;20044;-75
2024/02/08 03:03:58;;;;;;;18.55;12.35;;;;;;;5.34;100.00;100242.47;5234571;28;20041;-73
2024/02/08 03:06:34;;;;;;;19.98;12.68;;;;;;;5.25;100.00;100219.75;5240481;28;20029;-76
2024/02/08 03:09:14;;;;;;;19.42;12.48;;;;;;;5.32;100.00;100227.94;5240229;28;20052;-76
2024/02/08 03:11:46;;;;;;;17.92;11.88;;;;;;;5.27;100.00;100225.69;5240221;28;20031;-76
2024/02/08 03:14:19;;;;;;;19.23;12.65;;;;;;;5.27;100.00;100219.66;5237785;28;20029;-75
2024/02/08 03:16:51;;;;;;;19.17;12.80;;;;;;;5.28;100.00;100218.72;5237513;28;20027;-76
2024/02/08 03:19:23;;;;;;;19.88;13.13;;;;;;;5.22;100.00;100206.16;5235112;28;20509;-76
2024/02/08 03:21:55;;;;;;;18.50;12.75;;;;;;;5.31;100.00;100223.69;5241141;28;20044;-76
2024/02/08 03:24:35;;;;;;;17.13;12.40;;;;;;;5.30;100.00;100215.06;5236993;28;20044;-76
2024/02/08 03:27:13;;;;;;;19.42;11.85;;;;;;;5.34;100.00;100221.69;5237572;28;20033;-75
2024/02/08 03:29:45;;;;;;;19.13;12.93;;;;;;;5.33;100.00;100219.19;5233899;28;20044;-74
2024/02/08 03:32:18;;;;;;;17.60;12.60;;;;;;;5.30;100.00;100214.22;5238641;28;20021;-76
2024/02/08 03:34:53;;;;;;;19.97;13.10;;;;;;;5.32;100.00;100225.34;5235417;28;20498;-74
2024/02/08 03:37:25;;;;;;;16.38;12.30;;;;;;;5.31;100.00;100242.69;5241737;28;20033;-76
2024/02/08 03:39:57;;;;;;;16.25;10.93;;;;;;;5.28;100.00;100232.53;5231966;28;20029;-75
2024/02/08 03:42:28;;;;;;;17.83;11.18;;;;;;;5.32;100.00;100233.13;5237375;28;20032;-76
2024/02/08 03:45:00;;;;;;;16.77;12.18;;;;;;;5.29;100.00;100213.41;5237922;28;20048;-76
2024/02/08 03:47:32;;;;;;;24.42;13.15;;;;;;;5.28;100.00;100210.91;5238041;28;20037;-74
2024/02/08 03:50:05;;;;;;;22.58;14.18;;;;;;;5.31;100.00;100227.09;5239562;28;20034;-75
2024/02/08 03:52:37;;;;;;;19.40;13.73;;;;;;;5.34;100.00;100215.66;5234953;28;20501;-75
2024/02/08 03:55:09;;;;;;;19.27;14.10;;;;;;;5.32;100.00;100209.75;5237562;28;20479;-76
2024/02/08 03:57:41;;;;;;;20.65;14.05;;;;;;;5.33;100.00;100199.25;5240344;28;20045;-76
2024/02/08 04:00:17;;;;;;;24.40;14.27;;;;;;;5.39;100.00;100212.75;5238959;28;20044;-76
2024/02/08 04:02:49;;;;;;;20.83;13.65;;;;;;;5.32;100.00;100202.78;5234097;28;20041;-76
2024/02/08 04:05:26;;;;;;;21.23;14.40;;;;;;;5.36;100.00;100218.97;5237699;28;20762;-76
2024/02/08 04:08:02;;;;;;;20.10;14.35;;;;;;;5.36;100.00;100214.59;5236599;28;20482;-76
2024/02/08 04:55:44;;;;;;;21.15;14.23;;;;;;;5.44;100.00;100171.66;5240058;28;20041;-76
2024/02/08 04:58:17;;;;;;;23.67;14.98;;;;;;;5.43;100.00;100172.59;5246475;28;20068;-76
2024/02/08 05:00:49;;;;;;;21.50;14.98;;;;;;;5.43;100.00;100163.03;5240295;28;20028;-74
2024/02/08 05:03:22;;;;;;;22.88;14.80;;;;;;;5.38;100.00;100152.16;5242056;28;20434;-76
2024/02/08 05:05:55;;;;;;;;;;;;;;;6.01;100.00;100143.06;5245951;28;20028;-76
2024/02/08 05:08:26;;;;;;;24.20;14.48;;;;;;;5.49;100.00;100154.81;5241127;28;19916;-76
2024/02/08 05:10:59;;;;;;;22.23;15.18;;;;;;;5.39;100.00;100140.81;5237582;28;20033;-76
2024/02/08 05:13:31;;;;;;;24.37;15.97;;;;;;;5.41;100.00;100149.31;5244588;28;20055;-74
2024/02/08 05:16:05;;;;;;;19.83;14.52;;;;;;;5.41;100.00;100157.13;5243818;28;20037;-76
2024/02/08 05:18:37;;;;;;;24.67;16.58;;;;;;;5.32;100.00;100150.00;5240335;28;20036;-76
2024/02/08 05:21:16;;;;;;;22.63;15.45;;;;;;;5.44;100.00;100141.31;5241374;28;20033;-76
2024/02/08 05:23:51;;;;;;;23.85;16.63;;;;;;;5.31;100.00;100137.97;5238714;28;20036;-76
2024/02/08 05:26:25;;;;;;;21.85;15.60;;;;;;;5.32;100.00;100147.41;5234833;28;20037;-76
2024/02/08 05:28:57;;;;;;;23.20;16.27;;;;;;;5.35;100.00;100142.00;5240869;28;20029;-75
2024/02/08 05:31:30;;;;;;;25.50;16.73;;;;;;;5.30;100.00;100116.38;5242592;28;20028;-76
2024/02/08 05:34:01;;;;;;;22.77;15.60;;;;;;;5.34;100.00;100123.00;5240276;28;20033;-75
2024/02/08 05:36:34;;;;;;;22.48;15.38;;;;;;;5.32;100.00;100131.84;5239150;28;20052;-74
2024/02/08 05:39:06;;;;;;;27.75;15.88;;;;;;;5.40;100.00;100146.84;5239905;28;20033;-76
2024/02/08 05:41:44;;;;;;;23.50;14.90;;;;;;;5.45;100.00;100140.34;5233522;28;20045;-76
2024/02/08 05:44:16;;;;;;;22.67;15.65;;;;;;;5.36;100.00;100138.44;5240502;28;20493;-76
2024/02/08 05:46:48;;;;;;;22.40;15.70;;;;;;;5.33;100.00;100130.88;5239995;28;20056;-75
2024/02/08 05:49:25;;;;;;;23.85;15.23;;;;;;;5.40;100.00;100131.25;5242100;28;20029;-76
2024/02/08 05:52:05;;;;;;;21.90;14.98;;;;;;;5.33;100.00;100126.50;5238755;28;20048;-76
2024/02/08 05:54:40;;;;;;;22.65;13.18;;;;;;;5.33;100.00;100116.13;5237928;28;20036;-76
2024/02/08 05:57:12;;;;;;;20.42;13.85;;;;;;;5.40;100.00;100113.09;5231314;28;20120;-76
2024/02/08 05:59:44;;;;;;;25.35;15.52;;;;;;;5.33;100.00;100107.50;5232239;28;20033;-76
2024/02/08 06:02:22;;;;;;;23.40;14.70;;;;;;;5.33;100.00;100105.72;5229594;28;20048;-75
2024/02/08 06:05:08;;;;;;;24.67;13.63;;;;;;;5.25;100.00;100091.69;5234486;28;20494;-75
2024/02/08 06:07:45;;;;;;;20.15;13.50;;;;;;;5.28;100.00;100112.22;5236804;28;20052;-75
2024/02/08 06:10:22;;;;;;;22.67;13.80;;;;;;;5.26;100.00;100109.72;5238002;28;20034;-76
2024/02/08 06:13:01;;;;;;;20.85;13.88;;;;;;;5.31;100.00;100099.84;5235473;28;20038;-74
2024/02/08 06:15:33;;;;;;;22.58;13.77;;;;;;;5.36;100.00;100102.09;5237809;28;20387;-76
2024/02/08 06:18:05;;;;;;;21.70;13.13;;;;;;;5.34;100.00;100096.16;5234862;28;20037;-75
2024/02/08 06:20:40;;;;;;;23.10;13.38;;;;;;;5.33;100.00;100087.56;5237514;28;20065;-74
2024/02/08 06:23:26;;;;;;;23.27;14.38;;;;;;;5.22;100.00;100071.94;5238692;28;20033;-76
2024/02/08 06:26:43;;;;;;;19.65;13.05;;;;;;;5.28;100.00;100096.66;5237796;28;20036;-76
2024/02/08 06:28:53;;;;;;;26.80;15.18;;;;;;;5.37;100.00;100096.78;5222022;28;20068;-73
2024/02/08 06:31:29;;;;;;;21.50;12.95;;;;;;;5.36;100.00;100102.09;5236078;28;20087;-75
2024/02/08 06:34:27;;;;;;;22.08;13.45;;;;;;;5.43;100.00;100108.47;5231835;28;20403;-74
2024/02/08 06:37:15;;;;;;;24.48;14.13;;;;;;;5.42;100.00;100104.25;5230406;28;20414;-74
2024/02/08 06:39:55;;;;;;;25.33;13.98;;;;;;;5.37;100.00;100101.13;5230739;28;20021;-73
2024/02/08 06:46:17;;;;;;;27.80;14.60;;;;;;;5.43;100.00;100076.50;5241214;28;20033;-76
2024/02/08 07:39:34;;;;;;;25.20;14.68;;;;;;;5.61;100.00;100020.53;5234872;28;20046;-76
2024/02/08 07:42:12;;;;;;;29.73;15.00;;;;;;;5.63;100.00;100017.81;5234026;28;20033;-76
2024/02/08 07:44:50;;;;;;;32.10;15.93;;;;;;;5.56;100.00;99997.47;5243857;28;20040;-76
2024/02/08 07:47:24;;;;;;;26.60;16.30;;;;;;;5.49;100.00;99992.88;5234547;28;20041;-75
2024/02/08 07:50:04;;;;;;;29.05;14.63;;;;;;;5.53;100.00;100008.13;5244241;28;20074;-75
2024/02/08 07:52:46;;;;;;;27.83;15.50;;;;;;;5.55;100.00;100001.03;5233680;28;20296;-73
2024/02/08 07:55:20;;;;;;;24.80;15.02;;;;;;;5.54;100.00;99994.19;5239618;28;20490;-75
2024/02/08 07:57:58;;;;;;;30.38;15.85;;;;;;;5.58;100.00;99987.81;5233515;28;20045;-75
2024/02/08 08:00:41;;;;;;;27.02;15.48;;;;;;;5.50;100.00;99982.38;5240016;28;20048;-76
2024/02/08 08:03:16;;;;;;;26.95;14.77;;;;;;;5.56;100.00;99981.88;5239877;28;20039;-75
2024/02/08 08:05:56;;;;;;;26.42;15.82;;;;;;;5.51;100.00;99984.03;5234132;28;20033;-76
2024/02/08 08:08:28;;;;;;;27.67;15.85;;;;;;;5.54;100.00;99970.81;5240164;28;20367;-76
2024/02/08 08:11:04;;;;;;;26.00;15.03;;;;;;;5.61;100.00;99964.19;5243109;28;20123;-76
2024/02/08 08:19:08;;;;;;;27.13;14.15;;;;;;;5.68;100.00;99959.31;5244569;28;20041;-75
2024/02/08 08:24:59;;;;;;;22.35;14.55;;;;;;;5.67;100.00;99947.28;5240690;28;20499;-76
2024/02/08 08:27:27;;;;;;;24.40;14.52;;;;;;;5.69;100.00;99949.78;5245840;28;20037;-76
2024/02/08 08:29:58;;;;;;;24.42;14.77;;;;;;;5.66;100.00;99939.63;5238967;28;20041;-76
2024/02/08 08:41:00;;;;;;;25.00;13.75;;;;;;;5.85;100.00;99940.63;5241313;28;20093;-73
2024/02/08 08:43:34;;;;;;;27.25;15.30;;;;;;;5.92;100.00;99938.41;5244347;28;20021;-76
2024/02/08 08:46:12;;;;;;;27.13;15.43;;;;;;;5.89;100.00;99938.59;5242177;28;20491;-73
2024/02/08 08:48:50;;;;;;;30.13;15.90;;;;;;;5.90;100.00;99931.63;5243800;28;20033;-76
2024/02/08 08:51:30;;;;;;;21.73;13.90;;;;;;;5.92;100.00;99941.00;5239372;28;20029;-76
2024/02/08 08:54:14;;;;;;;25.38;15.23;;;;;;;5.93;100.00;99939.22;5247578;28;20052;-76
2024/02/08 08:56:49;;;;;;;27.00;16.15;;;;;;;5.84;100.00;99923.38;5241368;28;20529;-75
2024/02/08 08:59:22;;;;;;;25.50;16.17;;;;;;;5.89;100.00;99930.00;5237794;28;20024;-74
2024/02/08 09:01:53;;;;;;;28.70;15.55;;;;;;;5.95;100.00;99917.38;5242805;28;20029;-76
2024/02/08 09:04:25;;;;;;;22.00;15.70;;;;;;;5.93;100.00;99908.84;5241091;28;20028;-75
2024/02/08 09:07:08;;;;;;;26.58;15.88;;;;;;;5.94;100.00;99907.91;5244103;28;20475;-76
2024/02/08 09:10:00;;;;;;;24.83;15.70;;;;;;;5.88;100.00;99905.78;5242985;28;20483;-76
2024/02/08 09:12:39;;;;;;;27.13;16.35;;;;;;;5.83;100.00;99887.09;5239755;28;20487;-75
2024/02/08 09:15:26;;;;;;;29.10;17.33;;;;;;;5.96;100.00;99884.41;5236718;28;20038;-75
2024/02/08 09:17:58;;;;;;;25.65;16.23;;;;;;;5.96;100.00;99880.00;5244743;28;20041;-75
2024/02/08 09:20:29;;;;;;;28.20;16.60;;;;;;;5.98;100.00;99882.47;5239096;28;20387;-76
2024/02/08 09:23:12;;;;;;;28.77;16.90;;;;;;;5.93;100.00;99876.84;5242196;28;20049;-76
2024/02/08 09:25:45;;;;;;;26.57;16.57;;;;;;;6.00;100.00;99885.78;5240953;28;20028;-74
2024/02/08 09:28:23;;;;;;;26.27;17.55;;;;;;;6.10;100.00;99871.09;5231894;28;20487;-75
2024/02/08 09:30:59;;;;;;;26.35;17.40;;;;;;;6.08;100.00;99866.00;5235381;28;20040;-76
2024/02/08 09:33:35;;;;;;;26.10;17.83;;;;;;;6.02;100.00;99850.94;5238084;28;20049;-74
2024/02/08 09:36:07;;;;;;;32.50;18.45;;;;;;;6.07;100.00;99846.16;5238566;28;20033;-75
2024/02/08 09:38:43;;;;;;;28.58;19.38;;;;;;;6.07;100.00;99848.78;5240470;28;20398;-76
2024/02/08 09:41:23;;;;;;;28.15;18.70;;;;;;;6.00;100.00;99833.78;5241082;28;20379;-74
2024/02/08 09:44:05;;;;;;;33.05;20.63;;;;;;;5.99;100.00;99832.97;5244288;28;20044;-74
2024/02/08 09:49:18;;;;;;;27.52;19.80;;;;;;;6.06;100.00;99800.31;5241169;28;20034;-76
2024/02/08 09:51:52;;;;;;;28.55;19.42;;;;;;;6.07;100.00;99798.53;5233934;28;20512;-77
2024/02/08 09:54:37;;;;;;;27.73;20.70;;;;;;;5.96;100.00;99809.81;5246633;28;20033;-74
2024/02/08 09:57:21;;;;;;;30.50;20.95;;;;;;;6.02;100.00;99811.06;5236870;28;20053;-76
2024/02/08 10:00:10;;;;;;;29.95;20.58;;;;;;;6.00;100.00;99787.00;5242523;28;20044;-76
2024/02/08 10:02:54;;;;;;;32.35;21.42;;;;;;;6.07;100.00;99778.56;5214566;22;20050;-81
2024/02/08 10:08:31;;;;;;;29.13;21.48;;;;;;;6.09;100.00;99740.25;5197645;28;20046;-81
2024/02/08 10:11:23;;;;;;;28.77;21.50;;;;;;;6.12;100.00;99740.94;5212970;28;20030;-82
2024/02/08 10:13:56;;;;;;;31.63;22.38;;;;;;;6.09;100.00;99739.41;5211842;28;20025;-82
2024/02/08 10:16:29;;;;;;;24.85;20.25;;;;;;;6.10;100.00;99738.50;5205891;28;20042;-82
2024/02/08 10:19:16;;;;;;;28.60;21.65;;;;;;;6.07;100.00;99729.16;5214561;28;20034;-82
2024/02/08 10:22:01;;;;;;;30.38;20.80;;;;;;;6.18;100.00;99737.84;5217775;28;20044;-82
2024/02/08 10:27:21;;;;;;;27.88;21.08;;;;;;;6.13;100.00;99753.00;5219268;28;20368;-82
2024/02/08 10:30:05;;;;;;;25.23;19.63;;;;;;;6.20;100.00;99746.31;5217579;28;20810;-83
2024/02/08 10:32:37;;;;;;;25.95;20.30;;;;;;;6.13;100.00;99721.78;5217838;28;20038;-82
2024/02/08 10:35:15;;;;;;;24.48;19.83;;;;;;;6.16;100.00;99726.72;5216261;28;20037;-82
2024/02/08 10:37:49;;;;;;;24.67;19.77;;;;;;;6.12;100.00;99717.53;5216842;28;20045;-82
2024/02/08 10:40:30;;;;;;;;;;;;;;;6.73;100.00;99728.72;5216798;28;20030;-82
2024/02/08 10:43:16;;;;;;;23.80;17.80;;;;;;;6.25;100.00;99725.94;5218535;28;20206;-82
2024/02/08 10:45:53;;;;;;;21.98;18.92;;;;;;;6.21;100.00;99721.97;5216665;28;20505;-82
2024/02/08 10:48:28;;;;;;;27.38;19.73;;;;;;;6.15;100.00;99712.91;5216947;28;20030;-82
2024/02/08 10:51:11;;;;;;;22.42;18.88;;;;;;;6.30;100.00;99724.63;5213544;28;20502;-82
2024/02/08 10:53:44;;;;;;;23.30;18.42;;;;;;;6.36;100.00;99732.84;5216285;28;20057;-82
2024/02/08 10:56:18;;;;;;;25.15;19.42;;;;;;;6.28;100.00;99718.72;5213637;28;20037;-82
2024/02/08 10:58:55;;;;;;;24.50;19.38;;;;;;;6.36;100.00;99733.66;5214529;28;20041;-82
2024/02/08 11:01:37;;;;;;;22.80;18.33;;;;;;;6.38;100.00;99728.34;5215101;28;20096;-83
2024/02/08 11:04:30;;;;;;;21.90;18.38;;;;;;;6.43;100.00;99728.78;5218429;28;20498;-83
2024/02/08 11:07:23;;;;;;;22.95;17.92;;;;;;;6.41;100.00;99725.50;5214945;28;20536;-82
2024/02/08 11:09:58;;;;;;;22.02;18.13;;;;;;;6.38;100.00;99715.34;5217245;28;20026;-81
2024/02/08 11:12:32;;;;;;;22.70;18.50;;;;;;;6.42;100.00;99720.16;5217298;28;20026;-82
2024/02/08 11:15:14;;;;;;;19.95;16.05;;;;;;;6.55;100.00;99714.69;5217619;28;20033;-82
2024/02/08 11:17:50;;;;;;;20.65;18.23;;;;;;;6.53;100.00;99709.66;5215114;28;20030;-82
2024/02/08 11:20:42;;;;;;;19.75;16.67;;;;;;;6.55;100.00;99719.91;5215755;28;20038;-83
2024/02/08 11:23:23;;;;;;;20.65;17.35;;;;;;;6.51;100.00;99711.53;5216213;28;20033;-83
2024/02/08 11:25:56;;;;;;;18.38;16.13;;;;;;;6.55;100.00;99696.50;5215021;28;20034;-83
2024/02/08 11:28:28;;;;;;;19.38;15.68;;;;;;;6.56;100.00;99704.19;5218070;28;20033;-81
2024/02/08 11:31:12;;;;;;;20.23;16.00;;;;;;;6.75;100.00;99672.16;5210877;28;20038;-82
2024/02/08 11:33:44;;;;;;;17.38;15.43;;;;;;;6.64;100.00;99645.44;5214678;28;20040;-82
2024/02/08 11:36:20;;;;;;;16.43;14.53;;;;;;;6.68;100.00;99652.84;5215942;28;20525;-82
2024/02/08 11:38:57;;;;;;;18.83;15.63;;;;;;;6.67;100.00;99642.56;5216792;28;20037;-81
2024/02/08 11:41:31;;;;;;;16.50;14.68;;;;;;;6.64;100.00;99640.25;5213957;28;20443;-83
2024/02/08 11:44:05;;;;;;;15.98;13.80;;;;;;;6.64;100.00;99630.66;5214920;28;20033;-82
2024/02/08 11:46:37;;;;;;;16.25;14.02;;;;;;;6.67;100.00;99633.00;5216245;28;20479;-82
2024/02/08 11:49:15;;;;;;;16.33;14.55;;;;;;;6.66;100.00;99620.09;5212776;28;20415;-82
2024/02/08 11:51:48;;;;;;;16.08;14.15;;;;;;;6.71;100.00;99604.91;5217965;28;20030;-83
2024/02/08 11:54:28;;;;;;;17.88;14.80;;;;;;;6.83;100.00;99602.03;5213260;28;20048;-84
2024/02/08 11:57:05;;;;;;;16.50;14.75;;;;;;;6.61;100.00;99581.47;5213109;28;20030;-81
2024/02/08 11:59:38;;;;;;;16.08;14.02;;;;;;;6.72;100.00;99588.31;5215165;28;20030;-80
2024/02/08 12:02:10;;;;;;;15.57;13.40;;;;;;;6.72;100.00;99580.53;5213208;28;20055;-81
2024/02/08 12:04:42;;;;;;;16.58;13.90;;;;;;;6.74;100.00;99575.97;5213283;28;20794;-81
2024/02/08 12:07:20;;;;;;;15.07;13.52;;;;;;;6.79;100.00;99566.00;5214231;28;20033;-82
2024/02/08 12:09:59;;;;;;;14.25;12.82;;;;;;;6.72;100.00;99552.72;5213360;28;20025;-82
2024/02/08 12:12:33;;;;;;;14.45;12.65;;;;;;;6.60;100.00;99556.41;5205139;28;20034;-81
2024/02/08 12:15:07;;;;;;;15.75;12.50;;;;;;;6.64;100.00;99557.78;5210582;28;20466;-82
2024/02/08 12:17:40;;;;;;;14.50;12.13;;;;;;;6.53;100.00;99529.28;5215423;28;20060;-83
2024/02/08 12:20:15;;;;;;;15.68;12.75;;;;;;;6.73;100.00;99548.31;5210822;28;20042;-82
2024/02/08 12:22:54;;;;;;;13.73;12.05;;;;;;;6.77;100.00;99549.69;5209483;28;20963;-82
2024/02/08 12:25:27;;;;;;;13.93;12.50;;;;;;;6.66;100.00;99544.63;5214546;28;20407;-82
2024/02/08 12:28:04;;;;;;;13.57;12.27;;;;;;;6.75;100.00;99543.81;5212318;28;20033;-84
2024/02/08 12:30:40;;;;;;;13.35;11.95;;;;;;;6.65;100.00;99522.97;5213387;28;20710;-81
2024/02/08 12:33:13;;;;;;;15.00;12.55;;;;;;;6.56;100.00;99514.22;5221363;28;20630;-81
2024/02/08 12:35:46;;;;;;;15.03;12.13;;;;;;;6.63;100.00;99527.50;5213176;28;20563;-82
2024/02/08 12:38:21;;;;;;;13.20;11.80;;;;;;;6.66;100.00;99518.59;5211013;28;20038;-81
2024/02/08 12:40:55;;;;;;;14.63;11.73;;;;;;;6.62;100.00;99522.44;5213667;28;20026;-81
2024/02/08 12:43:27;;;;;;;14.35;12.85;;;;;;;6.61;100.00;99520.78;5214576;28;20036;-82
2024/02/08 12:46:00;;;;;;;13.45;12.00;;;;;;;6.58;100.00;99507.09;5212390;28;20057;-82
2024/02/08 12:48:34;;;;;;;14.52;11.52;;;;;;;6.57;100.00;99505.44;5209399;28;20057;-81
2024/02/08 12:51:13;;;;;;;12.35;11.07;;;;;;;6.54;100.00;99502.31;5211410;28;20318;-81
2024/02/08 12:54:07;;;;;;;12.25;10.88;;;;;;;6.73;100.00;99491.06;5213934;28;20037;-82
2024/02/08 12:56:39;;;;;;;13.70;11.50;;;;;;;6.60;100.00;99493.97;5214801;28;20029;-81
2024/02/08 12:59:11;;;;;;;12.23;10.93;;;;;;;6.55;100.00;99490.94;5214698;28;20437;-82
2024/02/08 13:01:47;;;;;;;14.13;11.60;;;;;;;6.54;100.00;99487.50;5213930;28;20045;-82
2024/02/08 13:04:23;;;;;;;11.65;10.45;;;;;;;6.46;100.00;99478.75;5212615;28;20041;-81
2024/02/08 13:06:56;;;;;;;12.65;11.35;;;;;;;6.39;100.00;99464.66;5215023;28;21625;-82
2024/02/08 13:09:30;;;;;;;11.93;10.70;;;;;;;6.48;100.00;99443.84;5216436;28;20049;-81
2024/02/08 13:12:14;;;;;;;13.07;10.85;;;;;;;6.49;100.00;99439.47;5216252;28;20032;-82
2024/02/08 13:14:49;;;;;;;12.38;10.52;;;;;;;6.57;100.00;99432.59;5219865;28;20500;-82
2024/02/08 13:17:25;;;;;;;11.57;10.43;;;;;;;6.52;100.00;99439.19;5219062;28;20426;-82
2024/02/08 13:19:57;;;;;;;11.43;10.23;;;;;;;6.62;100.00;99445.19;5219738;28;20406;-81
2024/02/08 13:22:33;;;;;;;12.43;11.13;;;;;;;6.53;100.00;99427.81;5218748;28;20056;-81
2024/02/08 13:25:12;;;;;;;12.95;10.93;;;;;;;6.53;100.00;99410.41;5217801;28;20059;-82
2024/02/08 13:27:44;;;;;;;12.57;11.02;;;;;;;6.64;100.00;99411.22;5219571;28;20030;-82
2024/02/08 13:30:17;;;;;;;13.02;11.35;;;;;;;6.68;100.00;99413.41;5216924;28;20045;-82
2024/02/08 13:32:51;;;;;;;12.75;11.45;;;;;;;6.64;100.00;99411.22;5217782;28;20034;-81
2024/02/08 13:35:25;;;;;;;11.93;10.65;;;;;;;6.60;100.00;99397.69;5216388;28;20045;-82
2024/02/08 13:37:58;;;;;;;11.73;10.52;;;;;;;6.63;100.00;99399.16;5219908;28;20037;-83
2024/02/08 13:40:30;;;;;;;13.10;11.00;;;;;;;6.64;100.00;99378.22;5218132;28;20033;-81
2024/02/08 13:43:02;;;;;;;13.32;11.45;;;;;;;6.70;100.00;99387.22;5215678;28;20463;-83
2024/02/08 13:45:34;;;;;;;13.00;11.38;;;;;;;6.64;100.00;99372.19;5218234;28;20038;-81
2024/02/08 13:48:12;;;;;;;11.65;9.85;;;;;;;6.64;100.00;99365.22;5217037;28;20471;-81
2024/02/08 13:50:44;;;;;;;12.13;10.55;;;;;;;6.70;100.00;99363.81;5217630;28;20040;-82
2024/02/08 13:53:16;;;;;;;12.07;10.88;;;;;;;6.54;100.00;99325.38;5218636;28;20491;-83
2024/02/08 13:55:52;;;;;;;12.13;10.85;;;;;;;6.66;100.00;99318.22;5215935;28;20048;-83